sensor_id;sensor_type;location;lat;lon;timestamp;P1;durP1;ratioP1;P2;durP2;ratioP2
13208;SDS011;6669;42.678;23.332;2022-10-16T00:01:36;7.97;;;5.63;;
13208;SDS011;6669;42.678;23.332;2022-10-16T00:04:05;5.63;;;4.97;;
13208;SDS011;6669;42.678;23.332;2022-10-16T00:06:33;6.13;;;5.53;;
13208;SDS011;6669;42.678;23.332;2022-10-16T00:09:01;6.23;;;5.63;;
13208;SDS011;6669;42.678;23.332;2022-10-16T00:11:31;6.57;;;5.77;;
13208;SDS011;6669;42.678;23.332;2022-10-16T00:14:03;6.57;;;5.87;;
13208;SDS011;6669;42.678;23.332;2022-10-16T00:16:33;7.07;;;5.97;;
13208;SDS011;6669;42.678;23.332;2022-10-16T00:19:02;8.60;;;6.87;;
13208;SDS011;6669;42.678;23.332;2022-10-16T00:21:30;7.53;;;5.93;;
13208;SDS011;6669;42.678;23.332;2022-10-16T00:24:00;9.03;;;6.97;;
13208;SDS011;6669;42.678;23.332;2022-10-16T00:26:31;6.40;;;5.60;;
13208;SDS011;6669;42.678;23.332;2022-10-16T00:29:00;8.57;;;5.87;;
13208;SDS011;6669;42.678;23.332;2022-10-16T00:31:28;9.80;;;5.70;;
13208;SDS011;6669;42.678;23.332;2022-10-16T00:33:57;7.57;;;6.30;;
13208;SDS011;6669;42.678;23.332;2022-10-16T00:36:26;7.20;;;5.83;;
13208;SDS011;6669;42.678;23.332;2022-10-16T00:38:55;8.00;;;5.60;;
13208;SDS011;6669;42.678;23.332;2022-10-16T00:41:26;7.63;;;5.77;;
13208;SDS011;6669;42.678;23.332;2022-10-16T00:43:56;8.40;;;6.13;;
13208;SDS011;6669;42.678;23.332;2022-10-16T00:46:26;6.60;;;5.43;;
13208;SDS011;6669;42.678;23.332;2022-10-16T00:48:57;7.10;;;6.27;;
13208;SDS011;6669;42.678;23.332;2022-10-16T00:51:30;7.17;;;6.37;;
13208;SDS011;6669;42.678;23.332;2022-10-16T00:54:00;7.20;;;5.73;;
13208;SDS011;6669;42.678;23.332;2022-10-16T00:56:34;10.37;;;5.83;;
13208;SDS011;6669;42.678;23.332;2022-10-16T00:59:14;7.33;;;6.00;;
13208;SDS011;6669;42.678;23.332;2022-10-16T01:01:43;6.53;;;5.57;;
13208;SDS011;6669;42.678;23.332;2022-10-16T01:04:11;8.70;;;5.77;;
13208;SDS011;6669;42.678;23.332;2022-10-16T01:06:40;7.00;;;6.17;;
13208;SDS011;6669;42.678;23.332;2022-10-16T01:09:17;7.77;;;6.27;;
13208;SDS011;6669;42.678;23.332;2022-10-16T01:11:54;7.67;;;6.47;;
13208;SDS011;6669;42.678;23.332;2022-10-16T01:14:32;9.13;;;6.53;;
13208;SDS011;6669;42.678;23.332;2022-10-16T01:17:10;8.83;;;6.50;;
13208;SDS011;6669;42.678;23.332;2022-10-16T01:20:00;7.70;;;6.10;;
13208;SDS011;6669;42.678;23.332;2022-10-16T01:22:38;8.77;;;6.13;;
13208;SDS011;6669;42.678;23.332;2022-10-16T01:25:16;8.00;;;6.03;;
13208;SDS011;6669;42.678;23.332;2022-10-16T01:27:53;9.03;;;5.77;;
13208;SDS011;6669;42.678;23.332;2022-10-16T01:30:23;7.87;;;5.90;;
13208;SDS011;6669;42.678;23.332;2022-10-16T01:32:55;8.03;;;5.97;;
13208;SDS011;6669;42.678;23.332;2022-10-16T01:35:26;7.17;;;6.03;;
13208;SDS011;6669;42.678;23.332;2022-10-16T01:37:58;8.27;;;7.37;;
13208;SDS011;6669;42.678;23.332;2022-10-16T01:40:31;9.70;;;6.57;;
13208;SDS011;6669;42.678;23.332;2022-10-16T01:43:04;9.40;;;6.80;;
13208;SDS011;6669;42.678;23.332;2022-10-16T01:45:36;8.50;;;6.33;;
13208;SDS011;6669;42.678;23.332;2022-10-16T01:48:05;7.70;;;6.40;;
13208;SDS011;6669;42.678;23.332;2022-10-16T01:50:37;8.00;;;5.83;;
13208;SDS011;6669;42.678;23.332;2022-10-16T01:53:07;6.57;;;5.87;;
13208;SDS011;6669;42.678;23.332;2022-10-16T01:55:38;7.70;;;5.90;;
13208;SDS011;6669;42.678;23.332;2022-10-16T01:58:13;7.50;;;5.50;;
13208;SDS011;6669;42.678;23.332;2022-10-16T02:00:42;10.50;;;8.17;;
13208;SDS011;6669;42.678;23.332;2022-10-16T02:03:12;8.57;;;6.80;;
13208;SDS011;6669;42.678;23.332;2022-10-16T02:05:45;6.97;;;5.80;;
13208;SDS011;6669;42.678;23.332;2022-10-16T02:08:14;7.23;;;5.17;;
13208;SDS011;6669;42.678;23.332;2022-10-16T02:10:42;8.60;;;5.90;;
13208;SDS011;6669;42.678;23.332;2022-10-16T02:13:11;6.40;;;5.33;;
13208;SDS011;6669;42.678;23.332;2022-10-16T02:15:44;7.43;;;5.87;;
13208;SDS011;6669;42.678;23.332;2022-10-16T02:18:12;9.70;;;6.30;;
13208;SDS011;6669;42.678;23.332;2022-10-16T02:20:43;7.53;;;5.80;;
13208;SDS011;6669;42.678;23.332;2022-10-16T02:23:24;8.67;;;6.03;;
13208;SDS011;6669;42.678;23.332;2022-10-16T02:26:03;7.00;;;5.57;;
13208;SDS011;6669;42.678;23.332;2022-10-16T02:28:37;5.80;;;5.20;;
13208;SDS011;6669;42.678;23.332;2022-10-16T02:31:10;6.60;;;4.70;;
13208;SDS011;6669;42.678;23.332;2022-10-16T02:33:40;6.37;;;5.57;;
13208;SDS011;6669;42.678;23.332;2022-10-16T02:36:11;6.63;;;5.20;;
13208;SDS011;6669;42.678;23.332;2022-10-16T02:38:39;5.93;;;4.57;;
13208;SDS011;6669;42.678;23.332;2022-10-16T02:41:08;6.27;;;5.00;;
13208;SDS011;6669;42.678;23.332;2022-10-16T02:43:38;7.77;;;4.70;;
13208;SDS011;6669;42.678;23.332;2022-10-16T02:46:06;6.87;;;5.00;;
13208;SDS011;6669;42.678;23.332;2022-10-16T02:48:34;5.50;;;4.30;;
13208;SDS011;6669;42.678;23.332;2022-10-16T02:51:02;4.63;;;3.80;;
13208;SDS011;6669;42.678;23.332;2022-10-16T02:53:30;5.57;;;3.93;;
13208;SDS011;6669;42.678;23.332;2022-10-16T02:55:59;4.80;;;3.97;;
13208;SDS011;6669;42.678;23.332;2022-10-16T02:58:27;5.27;;;4.10;;
13208;SDS011;6669;42.678;23.332;2022-10-16T03:00:56;5.23;;;4.27;;
13208;SDS011;6669;42.678;23.332;2022-10-16T03:03:24;4.73;;;4.20;;
13208;SDS011;6669;42.678;23.332;2022-10-16T03:05:52;3.87;;;3.50;;
13208;SDS011;6669;42.678;23.332;2022-10-16T03:08:20;6.17;;;4.07;;
13208;SDS011;6669;42.678;23.332;2022-10-16T03:10:49;4.40;;;3.97;;
13208;SDS011;6669;42.678;23.332;2022-10-16T03:13:17;6.10;;;4.30;;
13208;SDS011;6669;42.678;23.332;2022-10-16T03:15:46;4.40;;;3.77;;
13208;SDS011;6669;42.678;23.332;2022-10-16T03:18:16;5.10;;;3.90;;
13208;SDS011;6669;42.678;23.332;2022-10-16T03:20:44;5.17;;;3.80;;
13208;SDS011;6669;42.678;23.332;2022-10-16T03:23:12;3.90;;;3.57;;
13208;SDS011;6669;42.678;23.332;2022-10-16T03:25:40;4.63;;;3.77;;
13208;SDS011;6669;42.678;23.332;2022-10-16T03:28:08;6.60;;;3.67;;
13208;SDS011;6669;42.678;23.332;2022-10-16T03:30:36;4.40;;;4.00;;
13208;SDS011;6669;42.678;23.332;2022-10-16T03:33:05;4.43;;;3.93;;
13208;SDS011;6669;42.678;23.332;2022-10-16T03:35:35;6.33;;;3.83;;
13208;SDS011;6669;42.678;23.332;2022-10-16T03:38:03;4.30;;;3.90;;
13208;SDS011;6669;42.678;23.332;2022-10-16T03:40:31;5.03;;;3.77;;
13208;SDS011;6669;42.678;23.332;2022-10-16T03:42:59;5.33;;;3.97;;
13208;SDS011;6669;42.678;23.332;2022-10-16T03:45:27;4.43;;;3.30;;
13208;SDS011;6669;42.678;23.332;2022-10-16T03:47:55;3.93;;;3.10;;
13208;SDS011;6669;42.678;23.332;2022-10-16T03:50:23;5.07;;;3.77;;
13208;SDS011;6669;42.678;23.332;2022-10-16T03:52:52;4.07;;;3.53;;
13208;SDS011;6669;42.678;23.332;2022-10-16T03:55:20;4.50;;;3.67;;
13208;SDS011;6669;42.678;23.332;2022-10-16T03:57:48;5.03;;;3.53;;
13208;SDS011;6669;42.678;23.332;2022-10-16T04:00:16;4.73;;;4.00;;
13208;SDS011;6669;42.678;23.332;2022-10-16T04:02:44;4.30;;;3.90;;
13208;SDS011;6669;42.678;23.332;2022-10-16T04:05:12;6.30;;;4.03;;
13208;SDS011;6669;42.678;23.332;2022-10-16T04:07:40;4.60;;;3.90;;
13208;SDS011;6669;42.678;23.332;2022-10-16T04:10:10;4.37;;;3.40;;
13208;SDS011;6669;42.678;23.332;2022-10-16T04:12:38;3.87;;;3.57;;
13208;SDS011;6669;42.678;23.332;2022-10-16T04:15:07;5.53;;;4.10;;
13208;SDS011;6669;42.678;23.332;2022-10-16T04:17:36;4.30;;;3.90;;
13208;SDS011;6669;42.678;23.332;2022-10-16T04:20:04;6.40;;;4.13;;
13208;SDS011;6669;42.678;23.332;2022-10-16T04:22:33;4.70;;;3.87;;
13208;SDS011;6669;42.678;23.332;2022-10-16T04:25:01;14.43;;;9.60;;
13208;SDS011;6669;42.678;23.332;2022-10-16T04:27:30;11.23;;;7.53;;
13208;SDS011;6669;42.678;23.332;2022-10-16T04:29:58;5.10;;;4.57;;
13208;SDS011;6669;42.678;23.332;2022-10-16T04:32:27;9.17;;;6.90;;
13208;SDS011;6669;42.678;23.332;2022-10-16T04:34:55;5.97;;;5.00;;
13208;SDS011;6669;42.678;23.332;2022-10-16T04:37:23;5.63;;;4.57;;
13208;SDS011;6669;42.678;23.332;2022-10-16T04:39:52;5.77;;;5.17;;
13208;SDS011;6669;42.678;23.332;2022-10-16T04:42:20;6.93;;;5.83;;
13208;SDS011;6669;42.678;23.332;2022-10-16T04:44:49;7.93;;;6.17;;
13208;SDS011;6669;42.678;23.332;2022-10-16T04:47:17;6.13;;;4.80;;
13208;SDS011;6669;42.678;23.332;2022-10-16T04:49:45;9.83;;;5.97;;
13208;SDS011;6669;42.678;23.332;2022-10-16T04:52:13;6.00;;;4.63;;
13208;SDS011;6669;42.678;23.332;2022-10-16T04:54:41;5.13;;;4.23;;
13208;SDS011;6669;42.678;23.332;2022-10-16T04:57:11;4.10;;;3.67;;
13208;SDS011;6669;42.678;23.332;2022-10-16T04:59:39;4.73;;;4.13;;
13208;SDS011;6669;42.678;23.332;2022-10-16T05:02:09;5.27;;;4.33;;
13208;SDS011;6669;42.678;23.332;2022-10-16T05:04:37;6.33;;;5.03;;
13208;SDS011;6669;42.678;23.332;2022-10-16T05:07:05;6.43;;;4.70;;
13208;SDS011;6669;42.678;23.332;2022-10-16T05:09:33;5.90;;;4.60;;
13208;SDS011;6669;42.678;23.332;2022-10-16T05:12:01;8.23;;;5.43;;
13208;SDS011;6669;42.678;23.332;2022-10-16T05:14:29;6.63;;;5.37;;
13208;SDS011;6669;42.678;23.332;2022-10-16T05:16:59;5.17;;;4.37;;
13208;SDS011;6669;42.678;23.332;2022-10-16T05:19:29;6.13;;;4.27;;
13208;SDS011;6669;42.678;23.332;2022-10-16T05:21:57;4.43;;;4.00;;
13208;SDS011;6669;42.678;23.332;2022-10-16T05:24:26;5.87;;;4.63;;
13208;SDS011;6669;42.678;23.332;2022-10-16T05:26:54;5.10;;;4.30;;
13208;SDS011;6669;42.678;23.332;2022-10-16T05:29:22;4.60;;;3.80;;
13208;SDS011;6669;42.678;23.332;2022-10-16T05:31:51;4.37;;;3.97;;
13208;SDS011;6669;42.678;23.332;2022-10-16T05:34:20;4.53;;;3.90;;
13208;SDS011;6669;42.678;23.332;2022-10-16T05:36:50;5.63;;;5.00;;
13208;SDS011;6669;42.678;23.332;2022-10-16T05:39:18;5.23;;;4.73;;
13208;SDS011;6669;42.678;23.332;2022-10-16T05:41:46;7.53;;;5.00;;
13208;SDS011;6669;42.678;23.332;2022-10-16T05:44:17;5.57;;;4.27;;
13208;SDS011;6669;42.678;23.332;2022-10-16T05:46:45;6.87;;;4.70;;
13208;SDS011;6669;42.678;23.332;2022-10-16T05:49:14;4.97;;;4.43;;
13208;SDS011;6669;42.678;23.332;2022-10-16T05:51:42;4.47;;;4.07;;
13208;SDS011;6669;42.678;23.332;2022-10-16T05:54:11;7.17;;;4.53;;
13208;SDS011;6669;42.678;23.332;2022-10-16T05:56:40;5.73;;;4.23;;
13208;SDS011;6669;42.678;23.332;2022-10-16T05:59:08;5.23;;;4.27;;
13208;SDS011;6669;42.678;23.332;2022-10-16T06:01:36;6.23;;;4.13;;
13208;SDS011;6669;42.678;23.332;2022-10-16T06:04:04;6.87;;;5.33;;
13208;SDS011;6669;42.678;23.332;2022-10-16T06:06:32;13.67;;;11.37;;
13208;SDS011;6669;42.678;23.332;2022-10-16T06:09:02;8.70;;;6.90;;
13208;SDS011;6669;42.678;23.332;2022-10-16T06:11:33;6.17;;;5.13;;
13208;SDS011;6669;42.678;23.332;2022-10-16T06:14:01;5.70;;;4.87;;
13208;SDS011;6669;42.678;23.332;2022-10-16T06:16:33;5.90;;;4.73;;
13208;SDS011;6669;42.678;23.332;2022-10-16T06:19:02;5.73;;;4.83;;
13208;SDS011;6669;42.678;23.332;2022-10-16T06:21:33;7.13;;;5.20;;
13208;SDS011;6669;42.678;23.332;2022-10-16T06:24:01;7.13;;;5.93;;
13208;SDS011;6669;42.678;23.332;2022-10-16T06:26:30;7.00;;;5.60;;
13208;SDS011;6669;42.678;23.332;2022-10-16T06:29:00;6.17;;;5.27;;
13208;SDS011;6669;42.678;23.332;2022-10-16T06:31:29;6.00;;;5.23;;
13208;SDS011;6669;42.678;23.332;2022-10-16T06:34:00;7.37;;;5.83;;
13208;SDS011;6669;42.678;23.332;2022-10-16T06:36:31;7.37;;;5.40;;
13208;SDS011;6669;42.678;23.332;2022-10-16T06:38:59;5.70;;;5.13;;
13208;SDS011;6669;42.678;23.332;2022-10-16T06:41:27;6.80;;;5.33;;
13208;SDS011;6669;42.678;23.332;2022-10-16T06:43:55;6.23;;;5.50;;
13208;SDS011;6669;42.678;23.332;2022-10-16T06:46:25;6.97;;;5.70;;
13208;SDS011;6669;42.678;23.332;2022-10-16T06:48:56;6.87;;;5.10;;
13208;SDS011;6669;42.678;23.332;2022-10-16T06:51:24;7.73;;;5.30;;
13208;SDS011;6669;42.678;23.332;2022-10-16T06:53:53;5.50;;;4.90;;
13208;SDS011;6669;42.678;23.332;2022-10-16T06:56:30;6.60;;;5.00;;
13208;SDS011;6669;42.678;23.332;2022-10-16T06:58:59;7.07;;;5.40;;
13208;SDS011;6669;42.678;23.332;2022-10-16T07:01:29;10.70;;;5.70;;
13208;SDS011;6669;42.678;23.332;2022-10-16T07:03:58;6.07;;;5.10;;
13208;SDS011;6669;42.678;23.332;2022-10-16T07:06:27;6.80;;;5.70;;
13208;SDS011;6669;42.678;23.332;2022-10-16T07:09:03;6.33;;;5.13;;
13208;SDS011;6669;42.678;23.332;2022-10-16T07:11:32;7.03;;;6.00;;
13208;SDS011;6669;42.678;23.332;2022-10-16T07:14:01;7.03;;;5.17;;
13208;SDS011;6669;42.678;23.332;2022-10-16T07:16:32;7.97;;;5.93;;
13208;SDS011;6669;42.678;23.332;2022-10-16T07:19:01;6.40;;;5.33;;
13208;SDS011;6669;42.678;23.332;2022-10-16T07:21:31;8.30;;;6.07;;
13208;SDS011;6669;42.678;23.332;2022-10-16T07:24:03;7.57;;;6.30;;
13208;SDS011;6669;42.678;23.332;2022-10-16T07:26:35;6.87;;;5.33;;
13208;SDS011;6669;42.678;23.332;2022-10-16T07:29:06;6.93;;;5.30;;
13208;SDS011;6669;42.678;23.332;2022-10-16T07:31:41;8.23;;;6.23;;
13208;SDS011;6669;42.678;23.332;2022-10-16T07:34:09;7.27;;;5.90;;
13208;SDS011;6669;42.678;23.332;2022-10-16T07:36:37;8.43;;;6.20;;
13208;SDS011;6669;42.678;23.332;2022-10-16T07:39:23;8.73;;;6.17;;
13208;SDS011;6669;42.678;23.332;2022-10-16T07:41:52;7.33;;;5.80;;
13208;SDS011;6669;42.678;23.332;2022-10-16T07:44:20;6.57;;;5.37;;
13208;SDS011;6669;42.678;23.332;2022-10-16T07:46:49;6.47;;;5.20;;
13208;SDS011;6669;42.678;23.332;2022-10-16T07:49:18;6.00;;;5.00;;
13208;SDS011;6669;42.678;23.332;2022-10-16T07:51:46;5.90;;;4.90;;
13208;SDS011;6669;42.678;23.332;2022-10-16T07:54:14;5.80;;;4.50;;
13208;SDS011;6669;42.678;23.332;2022-10-16T07:56:42;6.20;;;3.93;;
13208;SDS011;6669;42.678;23.332;2022-10-16T07:59:10;4.67;;;4.23;;
13208;SDS011;6669;42.678;23.332;2022-10-16T08:01:39;5.57;;;4.50;;
13208;SDS011;6669;42.678;23.332;2022-10-16T08:04:10;6.30;;;4.50;;
13208;SDS011;6669;42.678;23.332;2022-10-16T08:06:39;4.88;;;4.03;;
13208;SDS011;6669;42.678;23.332;2022-10-16T08:09:08;5.30;;;4.25;;
13208;SDS011;6669;42.678;23.332;2022-10-16T08:11:36;4.80;;;4.30;;
13208;SDS011;6669;42.678;23.332;2022-10-16T08:14:05;4.07;;;3.25;;
13208;SDS011;6669;42.678;23.332;2022-10-16T08:16:33;3.65;;;3.35;;
13208;SDS011;6669;42.678;23.332;2022-10-16T08:19:02;6.07;;;3.67;;
13208;SDS011;6669;42.678;23.332;2022-10-16T08:21:32;3.72;;;3.42;;
13208;SDS011;6669;42.678;23.332;2022-10-16T08:24:01;4.88;;;3.58;;
13208;SDS011;6669;42.678;23.332;2022-10-16T08:26:29;7.20;;;5.95;;
13208;SDS011;6669;42.678;23.332;2022-10-16T08:28:58;5.00;;;4.28;;
13208;SDS011;6669;42.678;23.332;2022-10-16T08:31:27;17.42;;;8.63;;
13208;SDS011;6669;42.678;23.332;2022-10-16T08:33:55;7.07;;;4.20;;
13208;SDS011;6669;42.678;23.332;2022-10-16T08:36:23;4.10;;;3.33;;
13208;SDS011;6669;42.678;23.332;2022-10-16T08:38:53;4.72;;;3.85;;
13208;SDS011;6669;42.678;23.332;2022-10-16T08:41:24;3.17;;;2.83;;
13208;SDS011;6669;42.678;23.332;2022-10-16T08:44:15;7.18;;;4.10;;
13208;SDS011;6669;42.678;23.332;2022-10-16T08:46:56;3.55;;;3.17;;
13208;SDS011;6669;42.678;23.332;2022-10-16T08:49:35;3.38;;;3.00;;
13208;SDS011;6669;42.678;23.332;2022-10-16T08:52:07;3.03;;;2.60;;
13208;SDS011;6669;42.678;23.332;2022-10-16T08:54:42;4.00;;;3.22;;
13208;SDS011;6669;42.678;23.332;2022-10-16T08:57:14;2.45;;;2.25;;
13208;SDS011;6669;42.678;23.332;2022-10-16T08:59:49;2.53;;;2.33;;
13208;SDS011;6669;42.678;23.332;2022-10-16T09:02:24;2.30;;;2.10;;
13208;SDS011;6669;42.678;23.332;2022-10-16T09:05:03;2.70;;;2.50;;
13208;SDS011;6669;42.678;23.332;2022-10-16T09:07:46;2.45;;;2.13;;
13208;SDS011;6669;42.678;23.332;2022-10-16T09:10:28;2.53;;;2.25;;
13208;SDS011;6669;42.678;23.332;2022-10-16T09:13:09;2.42;;;2.22;;
13208;SDS011;6669;42.678;23.332;2022-10-16T09:15:46;7.13;;;5.88;;
13208;SDS011;6669;42.678;23.332;2022-10-16T09:18:22;21.80;;;17.40;;
13208;SDS011;6669;42.678;23.332;2022-10-16T09:21:01;2.67;;;2.47;;
13208;SDS011;6669;42.678;23.332;2022-10-16T09:23:37;2.33;;;2.10;;
13208;SDS011;6669;42.678;23.332;2022-10-16T09:26:10;2.65;;;2.30;;
13208;SDS011;6669;42.678;23.332;2022-10-16T09:28:41;4.57;;;3.20;;
13208;SDS011;6669;42.678;23.332;2022-10-16T09:31:12;2.50;;;2.10;;
13208;SDS011;6669;42.678;23.332;2022-10-16T09:33:45;2.20;;;2.00;;
13208;SDS011;6669;42.678;23.332;2022-10-16T09:36:17;1.80;;;1.70;;
13208;SDS011;6669;42.678;23.332;2022-10-16T09:41:36;2.25;;;2.00;;
13208;SDS011;6669;42.678;23.332;2022-10-16T09:44:14;2.53;;;2.08;;
13208;SDS011;6669;42.678;23.332;2022-10-16T09:46:47;3.13;;;2.00;;
13208;SDS011;6669;42.678;23.332;2022-10-16T09:49:19;2.20;;;1.98;;
13208;SDS011;6669;42.678;23.332;2022-10-16T09:51:50;2.35;;;2.10;;
13208;SDS011;6669;42.678;23.332;2022-10-16T09:54:20;2.38;;;2.17;;
13208;SDS011;6669;42.678;23.332;2022-10-16T09:56:50;2.30;;;2.10;;
13208;SDS011;6669;42.678;23.332;2022-10-16T09:59:20;2.38;;;2.17;;
13208;SDS011;6669;42.678;23.332;2022-10-16T10:01:53;3.40;;;2.25;;
13208;SDS011;6669;42.678;23.332;2022-10-16T10:04:23;2.22;;;2.03;;
13208;SDS011;6669;42.678;23.332;2022-10-16T10:06:52;2.00;;;1.80;;
13208;SDS011;6669;42.678;23.332;2022-10-16T10:09:23;1.77;;;1.67;;
13208;SDS011;6669;42.678;23.332;2022-10-16T10:11:57;2.22;;;2.03;;
13208;SDS011;6669;42.678;23.332;2022-10-16T10:14:31;2.10;;;1.90;;
13208;SDS011;6669;42.678;23.332;2022-10-16T10:17:29;2.50;;;2.30;;
13208;SDS011;6669;42.678;23.332;2022-10-16T10:19:58;1.92;;;1.70;;
13208;SDS011;6669;42.678;23.332;2022-10-16T10:22:40;1.60;;;1.45;;
13208;SDS011;6669;42.678;23.332;2022-10-16T10:25:23;2.22;;;2.00;;
13208;SDS011;6669;42.678;23.332;2022-10-16T10:30:59;3.00;;;1.80;;
13208;SDS011;6669;42.678;23.332;2022-10-16T10:33:36;2.10;;;1.85;;
13208;SDS011;6669;42.678;23.332;2022-10-16T10:36:12;1.58;;;1.48;;
13208;SDS011;6669;42.678;23.332;2022-10-16T10:38:50;2.08;;;1.80;;
13208;SDS011;6669;42.678;23.332;2022-10-16T10:41:27;2.22;;;2.03;;
13208;SDS011;6669;42.678;23.332;2022-10-16T10:44:19;1.95;;;1.80;;
13208;SDS011;6669;42.678;23.332;2022-10-16T10:46:55;2.10;;;1.92;;
13208;SDS011;6669;42.678;23.332;2022-10-16T10:49:32;2.88;;;2.20;;
13208;SDS011;6669;42.678;23.332;2022-10-16T10:52:22;1.60;;;1.50;;
13208;SDS011;6669;42.678;23.332;2022-10-16T10:55:02;2.05;;;1.85;;
13208;SDS011;6669;42.678;23.332;2022-10-16T10:57:46;2.92;;;2.13;;
13208;SDS011;6669;42.678;23.332;2022-10-16T11:00:33;1.83;;;1.65;;
13208;SDS011;6669;42.678;23.332;2022-10-16T11:03:13;1.83;;;1.50;;
13208;SDS011;6669;42.678;23.332;2022-10-16T11:06:00;1.73;;;1.60;;
13208;SDS011;6669;42.678;23.332;2022-10-16T11:08:34;2.03;;;1.52;;
13208;SDS011;6669;42.678;23.332;2022-10-16T11:11:08;1.80;;;1.70;;
13208;SDS011;6669;42.678;23.332;2022-10-16T11:13:43;2.28;;;1.52;;
13208;SDS011;6669;42.678;23.332;2022-10-16T11:16:20;3.55;;;1.80;;
13208;SDS011;6669;42.678;23.332;2022-10-16T11:18:55;5.72;;;3.75;;
13208;SDS011;6669;42.678;23.332;2022-10-16T11:21:27;5.57;;;4.28;;
13208;SDS011;6669;42.678;23.332;2022-10-16T11:24:04;2.35;;;1.92;;
13208;SDS011;6669;42.678;23.332;2022-10-16T11:26:40;2.10;;;1.90;;
13208;SDS011;6669;42.678;23.332;2022-10-16T11:29:12;1.95;;;1.75;;
13208;SDS011;6669;42.678;23.332;2022-10-16T11:31:48;2.08;;;1.77;;
13208;SDS011;6669;42.678;23.332;2022-10-16T11:34:21;2.45;;;1.70;;
13208;SDS011;6669;42.678;23.332;2022-10-16T11:36:58;1.88;;;1.67;;
13208;SDS011;6669;42.678;23.332;2022-10-16T11:39:32;1.85;;;1.70;;
13208;SDS011;6669;42.678;23.332;2022-10-16T11:42:02;1.95;;;1.75;;
13208;SDS011;6669;42.678;23.332;2022-10-16T11:44:43;1.63;;;1.52;;
13208;SDS011;6669;42.678;23.332;2022-10-16T11:47:26;2.13;;;1.88;;
13208;SDS011;6669;42.678;23.332;2022-10-16T11:50:20;3.13;;;2.72;;
13208;SDS011;6669;42.678;23.332;2022-10-16T11:52:53;4.00;;;1.70;;
13208;SDS011;6669;42.678;23.332;2022-10-16T11:55:29;2.67;;;1.80;;
13208;SDS011;6669;42.678;23.332;2022-10-16T11:58:02;9.00;;;6.68;;
13208;SDS011;6669;42.678;23.332;2022-10-16T12:00:36;6.00;;;4.20;;
13208;SDS011;6669;42.678;23.332;2022-10-16T12:03:15;2.20;;;2.00;;
13208;SDS011;6669;42.678;23.332;2022-10-16T12:06:00;2.08;;;1.88;;
13208;SDS011;6669;42.678;23.332;2022-10-16T12:08:39;1.60;;;1.50;;
13208;SDS011;6669;42.678;23.332;2022-10-16T12:11:09;1.83;;;1.60;;
13208;SDS011;6669;42.678;23.332;2022-10-16T12:13:50;2.65;;;1.65;;
13208;SDS011;6669;42.678;23.332;2022-10-16T12:16:22;2.00;;;1.80;;
13208;SDS011;6669;42.678;23.332;2022-10-16T12:21:40;2.58;;;1.38;;
13208;SDS011;6669;42.678;23.332;2022-10-16T12:24:19;2.35;;;1.75;;
13208;SDS011;6669;42.678;23.332;2022-10-16T12:26:53;1.67;;;1.58;;
13208;SDS011;6669;42.678;23.332;2022-10-16T12:29:32;1.77;;;1.58;;
13208;SDS011;6669;42.678;23.332;2022-10-16T12:32:02;1.80;;;1.70;;
13208;SDS011;6669;42.678;23.332;2022-10-16T12:34:36;4.68;;;3.17;;
13208;SDS011;6669;42.678;23.332;2022-10-16T12:37:08;2.00;;;1.85;;
13208;SDS011;6669;42.678;23.332;2022-10-16T12:39:39;2.08;;;1.88;;
13208;SDS011;6669;42.678;23.332;2022-10-16T12:42:22;1.92;;;1.83;;
13208;SDS011;6669;42.678;23.332;2022-10-16T12:44:58;2.00;;;1.80;;
13208;SDS011;6669;42.678;23.332;2022-10-16T12:47:36;1.83;;;1.73;;
13208;SDS011;6669;42.678;23.332;2022-10-16T12:53:04;2.30;;;1.90;;
13208;SDS011;6669;42.678;23.332;2022-10-16T12:55:49;2.55;;;2.00;;
13208;SDS011;6669;42.678;23.332;2022-10-16T12:58:31;2.00;;;1.90;;
13208;SDS011;6669;42.678;23.332;2022-10-16T13:01:34;1.77;;;1.67;;
13208;SDS011;6669;42.678;23.332;2022-10-16T13:07:06;1.60;;;1.50;;
13208;SDS011;6669;42.678;23.332;2022-10-16T13:10:05;1.73;;;1.63;;
13208;SDS011;6669;42.678;23.332;2022-10-16T13:12:55;2.03;;;1.50;;
13208;SDS011;6669;42.678;23.332;2022-10-16T13:15:50;1.70;;;1.60;;
13208;SDS011;6669;42.678;23.332;2022-10-16T13:18:29;1.63;;;1.52;;
13208;SDS011;6669;42.678;23.332;2022-10-16T13:21:14;1.95;;;1.70;;
13208;SDS011;6669;42.678;23.332;2022-10-16T13:23:58;2.28;;;1.80;;
13208;SDS011;6669;42.678;23.332;2022-10-16T13:26:48;4.15;;;1.85;;
13208;SDS011;6669;42.678;23.332;2022-10-16T13:32:20;1.52;;;1.42;;
13208;SDS011;6669;42.678;23.332;2022-10-16T13:35:18;1.75;;;1.60;;
13208;SDS011;6669;42.678;23.332;2022-10-16T13:37:50;1.42;;;1.33;;
13208;SDS011;6669;42.678;23.332;2022-10-16T13:40:20;3.38;;;1.90;;
13208;SDS011;6669;42.678;23.332;2022-10-16T13:42:55;2.17;;;1.98;;
13208;SDS011;6669;42.678;23.332;2022-10-16T13:45:24;1.60;;;1.50;;
13208;SDS011;6669;42.678;23.332;2022-10-16T13:48:02;2.80;;;1.80;;
13208;SDS011;6669;42.678;23.332;2022-10-16T13:50:31;8.27;;;6.00;;
13208;SDS011;6669;42.678;23.332;2022-10-16T13:53:03;6.15;;;4.35;;
13208;SDS011;6669;42.678;23.332;2022-10-16T13:55:32;1.60;;;1.50;;
13208;SDS011;6669;42.678;23.332;2022-10-16T13:58:06;1.55;;;1.45;;
13208;SDS011;6669;42.678;23.332;2022-10-16T14:00:39;2.53;;;1.60;;
13208;SDS011;6669;42.678;23.332;2022-10-16T14:03:12;1.55;;;1.45;;
13208;SDS011;6669;42.678;23.332;2022-10-16T14:05:44;1.67;;;1.58;;
13208;SDS011;6669;42.678;23.332;2022-10-16T14:08:18;1.77;;;1.63;;
13208;SDS011;6669;42.678;23.332;2022-10-16T14:10:53;1.85;;;1.63;;
13208;SDS011;6669;42.678;23.332;2022-10-16T14:13:34;1.65;;;1.55;;
13208;SDS011;6669;42.678;23.332;2022-10-16T14:16:06;1.77;;;1.60;;
13208;SDS011;6669;42.678;23.332;2022-10-16T14:18:37;1.40;;;1.30;;
13208;SDS011;6669;42.678;23.332;2022-10-16T14:21:13;1.42;;;1.33;;
13208;SDS011;6669;42.678;23.332;2022-10-16T14:23:44;1.05;;;1.05;;
13208;SDS011;6669;42.678;23.332;2022-10-16T14:26:13;1.50;;;1.40;;
13208;SDS011;6669;42.678;23.332;2022-10-16T14:28:46;3.60;;;1.33;;
13208;SDS011;6669;42.678;23.332;2022-10-16T14:31:28;1.50;;;1.40;;
13208;SDS011;6669;42.678;23.332;2022-10-16T14:34:27;2.20;;;1.48;;
13208;SDS011;6669;42.678;23.332;2022-10-16T14:37:14;1.60;;;1.50;;
13208;SDS011;6669;42.678;23.332;2022-10-16T14:39:53;3.33;;;2.30;;
13208;SDS011;6669;42.678;23.332;2022-10-16T14:42:23;1.40;;;1.30;;
13208;SDS011;6669;42.678;23.332;2022-10-16T14:44:54;1.55;;;1.40;;
13208;SDS011;6669;42.678;23.332;2022-10-16T14:47:29;1.35;;;1.25;;
13208;SDS011;6669;42.678;23.332;2022-10-16T14:49:57;2.65;;;1.73;;
13208;SDS011;6669;42.678;23.332;2022-10-16T14:52:26;1.48;;;1.33;;
13208;SDS011;6669;42.678;23.332;2022-10-16T14:54:54;1.92;;;1.55;;
13208;SDS011;6669;42.678;23.332;2022-10-16T14:57:38;1.80;;;1.70;;
13208;SDS011;6669;42.678;23.332;2022-10-16T15:00:15;2.38;;;1.90;;
13208;SDS011;6669;42.678;23.332;2022-10-16T15:02:57;3.08;;;1.55;;
13208;SDS011;6669;42.678;23.332;2022-10-16T15:05:28;1.80;;;1.50;;
13208;SDS011;6669;42.678;23.332;2022-10-16T15:08:02;2.67;;;1.70;;
13208;SDS011;6669;42.678;23.332;2022-10-16T15:10:35;1.90;;;1.70;;
13208;SDS011;6669;42.678;23.332;2022-10-16T15:13:12;1.75;;;1.52;;
13208;SDS011;6669;42.678;23.332;2022-10-16T15:19:25;2.53;;;1.58;;
13208;SDS011;6669;42.678;23.332;2022-10-16T15:21:55;2.35;;;1.85;;
13208;SDS011;6669;42.678;23.332;2022-10-16T15:24:38;1.60;;;1.42;;
13208;SDS011;6669;42.678;23.332;2022-10-16T15:27:12;1.88;;;1.77;;
13208;SDS011;6669;42.678;23.332;2022-10-16T15:29:41;2.33;;;1.85;;
13208;SDS011;6669;42.678;23.332;2022-10-16T15:32:26;1.85;;;1.70;;
13208;SDS011;6669;42.678;23.332;2022-10-16T15:38:13;1.90;;;1.70;;
13208;SDS011;6669;42.678;23.332;2022-10-16T15:40:56;1.92;;;1.75;;
13208;SDS011;6669;42.678;23.332;2022-10-16T15:43:26;2.13;;;1.60;;
13208;SDS011;6669;42.678;23.332;2022-10-16T15:45:58;2.97;;;1.60;;